<?xml version="1.0" encoding="UTF-8"?>
<gpx  version="1.1"  creator="Verlag Esterbauer" xmlns:xsi="http://www.w3.org/2001/XMLSchema-instance" xmlns="http://www.topografix.com/GPX/1/1"  xsi:schemaLocation="http://www.topografix.com/GPX/1/1 http://www.topografix.com/GPX/1/1/gpx.xsd">
<trk>
  <name>wf-gran_T29</name>
  <trkseg>
    <trkpt lat="27.83637" lon="-15.612864">
    <time>1971-01-13T12:01:19Z</time>
    </trkpt>
    <trkpt lat="27.837194" lon="-15.613069">
    <time>1971-01-13T12:02:43Z</time>
  <cmt>extensions = 0.47</cmt>
    </trkpt>
    <trkpt lat="27.839197" lon="-15.614669">
    <time>1971-01-13T12:06:48Z</time>
  <cmt>extensions = 30.47</cmt>
    </trkpt>
    <trkpt lat="27.840079" lon="-15.614325">
    <time>1971-01-13T12:08:21Z</time>
  <cmt>extensions = 5.77</cmt>
    </trkpt>
    <trkpt lat="27.84069" lon="-15.614441">
    <time>1971-01-13T12:09:23Z</time>
  <cmt>extensions = 5.17</cmt>
    </trkpt>
    <trkpt lat="27.841231" lon="-15.614477">
    <time>1971-01-13T12:10:17Z</time>
  <cmt>extensions = 4.64</cmt>
    </trkpt>
    <trkpt lat="27.841774" lon="-15.614622">
    <time>1971-01-13T12:11:13Z</time>
  <cmt>extensions = 4.89</cmt>
    </trkpt>
    <trkpt lat="27.842278" lon="-15.614672">
    <time>1971-01-13T12:12:03Z</time>
  <cmt>extensions = 5.49</cmt>
    </trkpt>
    <trkpt lat="27.842814" lon="-15.614595">
    <time>1971-01-13T12:12:57Z</time>
  <cmt>extensions = 6.01</cmt>
    </trkpt>
    <trkpt lat="27.843413" lon="-15.614625">
    <time>1971-01-13T12:13:57Z</time>
  <cmt>extensions = 6.67</cmt>
    </trkpt>
    <trkpt lat="27.844033" lon="-15.61458">
    <time>1971-01-13T12:14:59Z</time>
  <cmt>extensions = 4.09</cmt>
    </trkpt>
    <trkpt lat="27.844779" lon="-15.614644">
    <time>1971-01-13T12:16:14Z</time>
  <cmt>extensions = 4.00</cmt>
    </trkpt>
    <trkpt lat="27.845018" lon="-15.614695">
    <time>1971-01-13T12:16:38Z</time>
  <cmt>extensions = 3.87</cmt>
    </trkpt>
    <trkpt lat="27.845472" lon="-15.615012">
    <time>1971-01-13T12:17:31Z</time>
  <cmt>extensions = 4.87</cmt>
    </trkpt>
    <trkpt lat="27.845567" lon="-15.615017">
    <time>1971-01-13T12:17:41Z</time>
  <cmt>extensions = 3.53</cmt>
    </trkpt>
    <trkpt lat="27.845697" lon="-15.61504">
    <time>1971-01-13T12:17:54Z</time>
  <cmt>extensions = 3.66</cmt>
    </trkpt>
    <trkpt lat="27.845826" lon="-15.614932">
    <time>1971-01-13T12:18:10Z</time>
  <cmt>extensions = 2.98</cmt>
    </trkpt>
    <trkpt lat="27.845598" lon="-15.614597">
    <time>1971-01-13T12:18:47Z</time>
  <cmt>extensions = 5.41</cmt>
    </trkpt>
    <trkpt lat="27.845757" lon="-15.61438">
    <time>1971-01-13T12:19:12Z</time>
  <cmt>extensions = 3.96</cmt>
    </trkpt>
    <trkpt lat="27.845931" lon="-15.614316">
    <time>1971-01-13T12:19:30Z</time>
  <cmt>extensions = 5.09</cmt>
    </trkpt>
    <trkpt lat="27.8461" lon="-15.614309">
    <time>1971-01-13T12:19:47Z</time>
  <cmt>extensions = 4.71</cmt>
    </trkpt>
    <trkpt lat="27.846728" lon="-15.614794">
    <time>1971-01-13T12:21:03Z</time>
  <cmt>extensions = 0.59</cmt>
    </trkpt>
    <trkpt lat="27.847009" lon="-15.61494">
    <time>1971-01-13T12:21:34Z</time>
  <cmt>extensions = 2.46</cmt>
    </trkpt>
    <trkpt lat="27.847872" lon="-15.615219">
    <time>1971-01-13T12:23:03Z</time>
  <cmt>extensions = 3.76</cmt>
    </trkpt>
    <trkpt lat="27.848714" lon="-15.616079">
    <time>1971-01-13T12:24:57Z</time>
  <cmt>extensions = 2.82</cmt>
    </trkpt>
    <trkpt lat="27.848737" lon="-15.616151">
    <time>1971-01-13T12:25:04Z</time>
  <cmt>extensions = 0.52</cmt>
    </trkpt>
    <trkpt lat="27.848832" lon="-15.616351">
    <time>1971-01-13T12:25:24Z</time>
  <cmt>extensions = 0.07</cmt>
    </trkpt>
    <trkpt lat="27.849042" lon="-15.616707">
    <time>1971-01-13T12:26:02Z</time>
  <cmt>extensions = 1.81</cmt>
    </trkpt>
    <trkpt lat="27.849183" lon="-15.616892">
    <time>1971-01-13T12:26:23Z</time>
  <cmt>extensions = 1.15</cmt>
    </trkpt>
    <trkpt lat="27.849265" lon="-15.616943">
    <time>1971-01-13T12:26:33Z</time>
  <cmt>extensions = 1.30</cmt>
    </trkpt>
    <trkpt lat="27.849501" lon="-15.617145">
    <time>1971-01-13T12:27:02Z</time>
  <cmt>extensions = 0.89</cmt>
    </trkpt>
    <trkpt lat="27.849573" lon="-15.617372">
    <time>1971-01-13T12:27:23Z</time>
  <cmt>extensions = 0.77</cmt>
    </trkpt>
    <trkpt lat="27.849651" lon="-15.617482">
    <time>1971-01-13T12:27:36Z</time>
  <cmt>extensions = 1.39</cmt>
    </trkpt>
    <trkpt lat="27.849674" lon="-15.61755">
    <time>1971-01-13T12:27:42Z</time>
  <cmt>extensions = 0.36</cmt>
    </trkpt>
    <trkpt lat="27.850151" lon="-15.618328">
    <time>1971-01-13T12:29:06Z</time>
  <cmt>extensions = 0.80</cmt>
    </trkpt>
    <trkpt lat="27.850201" lon="-15.61837">
    <time>1971-01-13T12:29:12Z</time>
  <cmt>extensions = 0.43</cmt>
    </trkpt>
    <trkpt lat="27.85027" lon="-15.618469">
    <time>1971-01-13T12:29:23Z</time>
  <cmt>extensions = 0.89</cmt>
    </trkpt>
    <trkpt lat="27.850342" lon="-15.618484">
    <time>1971-01-13T12:29:31Z</time>
  <cmt>extensions = 0.82</cmt>
    </trkpt>
    <trkpt lat="27.850442" lon="-15.618528">
    <time>1971-01-13T12:29:41Z</time>
  <cmt>extensions = 0.92</cmt>
    </trkpt>
    <trkpt lat="27.850542" lon="-15.618632">
    <time>1971-01-13T12:29:55Z</time>
  <cmt>extensions = 0.84</cmt>
    </trkpt>
    <trkpt lat="27.850705" lon="-15.618744">
    <time>1971-01-13T12:30:14Z</time>
  <cmt>extensions = 0.74</cmt>
    </trkpt>
    <trkpt lat="27.850907" lon="-15.618791">
    <time>1971-01-13T12:30:35Z</time>
  <cmt>extensions = 0.76</cmt>
    </trkpt>
    <trkpt lat="27.851022" lon="-15.619041">
    <time>1971-01-13T12:31:00Z</time>
  <cmt>extensions = 0.57</cmt>
    </trkpt>
    <trkpt lat="27.851009" lon="-15.619168">
    <time>1971-01-13T12:31:11Z</time>
  <cmt>extensions = 0.30</cmt>
    </trkpt>
    <trkpt lat="27.851229" lon="-15.619273">
    <time>1971-01-13T12:31:35Z</time>
  <cmt>extensions = 0.53</cmt>
    </trkpt>
    <trkpt lat="27.850371" lon="-15.61973">
    <time>1971-01-13T12:33:09Z</time>
  <cmt>extensions = 0.42</cmt>
    </trkpt>
    <trkpt lat="27.849788" lon="-15.620181">
    <time>1971-01-13T12:34:20Z</time>
  <cmt>extensions = 1.22</cmt>
    </trkpt>
    <trkpt lat="27.849799" lon="-15.620437">
    <time>1971-01-13T12:34:43Z</time>
  <cmt>extensions = 0.37</cmt>
    </trkpt>
    <trkpt lat="27.849823" lon="-15.620607">
    <time>1971-01-13T12:34:58Z</time>
  <cmt>extensions = 0.26</cmt>
    </trkpt>
    <trkpt lat="27.849759" lon="-15.62082">
    <time>1971-01-13T12:35:18Z</time>
  <cmt>extensions = 0.02</cmt>
    </trkpt>
    <trkpt lat="27.849782" lon="-15.621232">
    <time>1971-01-13T12:35:54Z</time>
  <cmt>extensions = 0.03</cmt>
    </trkpt>
    <trkpt lat="27.849744" lon="-15.621359">
    <time>1971-01-13T12:36:06Z</time>
  <cmt>extensions = 0.73</cmt>
    </trkpt>
    <trkpt lat="27.849779" lon="-15.621842">
    <time>1971-01-13T12:36:49Z</time>
  <cmt>extensions = 0.36</cmt>
    </trkpt>
    <trkpt lat="27.849804" lon="-15.621956">
    <time>1971-01-13T12:37:00Z</time>
  <cmt>extensions = 11.56</cmt>
    </trkpt>
    <trkpt lat="27.849839" lon="-15.622052">
    <time>1971-01-13T12:37:09Z</time>
  <cmt>extensions = 0.23</cmt>
    </trkpt>
    <trkpt lat="27.849786" lon="-15.622105">
    <time>1971-01-13T12:37:16Z</time>
  <cmt>extensions = 0.72</cmt>
    </trkpt>
    <trkpt lat="27.849824" lon="-15.622207">
    <time>1971-01-13T12:37:26Z</time>
  <cmt>extensions = 0.57</cmt>
    </trkpt>
    <trkpt lat="27.849874" lon="-15.622281">
    <time>1971-01-13T12:37:34Z</time>
  <cmt>extensions = 0.18</cmt>
    </trkpt>
    <trkpt lat="27.849969" lon="-15.622534">
    <time>1971-01-13T12:37:58Z</time>
  <cmt>extensions = 0.37</cmt>
    </trkpt>
    <trkpt lat="27.849986" lon="-15.622619">
    <time>1971-01-13T12:38:06Z</time>
  <cmt>extensions = 0.15</cmt>
    </trkpt>
    <trkpt lat="27.849972" lon="-15.622698">
    <time>1971-01-13T12:38:13Z</time>
  <cmt>extensions = 0.61</cmt>
    </trkpt>
    <trkpt lat="27.850011" lon="-15.622777">
    <time>1971-01-13T12:38:21Z</time>
  <cmt>extensions = 0.69</cmt>
    </trkpt>
    <trkpt lat="27.850076" lon="-15.622806">
    <time>1971-01-13T12:38:28Z</time>
  <cmt>extensions = 1.00</cmt>
    </trkpt>
    <trkpt lat="27.850248" lon="-15.622935">
    <time>1971-01-13T12:38:49Z</time>
  <cmt>extensions = 1.72</cmt>
    </trkpt>
    <trkpt lat="27.850334" lon="-15.623053">
    <time>1971-01-13T12:39:02Z</time>
  <cmt>extensions = 1.25</cmt>
    </trkpt>
    <trkpt lat="27.850364" lon="-15.623139">
    <time>1971-01-13T12:39:10Z</time>
  <cmt>extensions = 1.30</cmt>
    </trkpt>
    <trkpt lat="27.850543" lon="-15.623297">
    <time>1971-01-13T12:39:33Z</time>
  <cmt>extensions = 1.72</cmt>
    </trkpt>
    <trkpt lat="27.850564" lon="-15.623367">
    <time>1971-01-13T12:39:39Z</time>
  <cmt>extensions = 1.82</cmt>
    </trkpt>
    <trkpt lat="27.850676" lon="-15.62344">
    <time>1971-01-13T12:39:52Z</time>
  <cmt>extensions = 1.60</cmt>
    </trkpt>
    <trkpt lat="27.850857" lon="-15.623664">
    <time>1971-01-13T12:40:19Z</time>
  <cmt>extensions = 1.67</cmt>
    </trkpt>
    <trkpt lat="27.850921" lon="-15.623725">
    <time>1971-01-13T12:40:28Z</time>
  <cmt>extensions = 1.55</cmt>
    </trkpt>
    <trkpt lat="27.850983" lon="-15.623835">
    <time>1971-01-13T12:40:39Z</time>
  <cmt>extensions = 1.28</cmt>
    </trkpt>
    <trkpt lat="27.85104" lon="-15.623881">
    <time>1971-01-13T12:40:46Z</time>
  <cmt>extensions = 1.30</cmt>
    </trkpt>
    <trkpt lat="27.85108" lon="-15.623959">
    <time>1971-01-13T12:40:54Z</time>
  <cmt>extensions = 2.22</cmt>
    </trkpt>
    <trkpt lat="27.851216" lon="-15.624148">
    <time>1971-01-13T12:41:16Z</time>
  <cmt>extensions = 1.60</cmt>
    </trkpt>
    <trkpt lat="27.851397" lon="-15.624314">
    <time>1971-01-13T12:41:39Z</time>
  <cmt>extensions = 1.85</cmt>
    </trkpt>
    <trkpt lat="27.851444" lon="-15.624411">
    <time>1971-01-13T12:41:49Z</time>
  <cmt>extensions = 1.81</cmt>
    </trkpt>
    <trkpt lat="27.851524" lon="-15.624493">
    <time>1971-01-13T12:41:59Z</time>
  <cmt>extensions = 1.34</cmt>
    </trkpt>
    <trkpt lat="27.85165" lon="-15.624553">
    <time>1971-01-13T12:42:13Z</time>
  <cmt>extensions = 1.52</cmt>
    </trkpt>
    <trkpt lat="27.851881" lon="-15.624764">
    <time>1971-01-13T12:42:43Z</time>
  <cmt>extensions = 1.47</cmt>
    </trkpt>
    <trkpt lat="27.852036" lon="-15.625006">
    <time>1971-01-13T12:43:09Z</time>
  <cmt>extensions = 1.58</cmt>
    </trkpt>
    <trkpt lat="27.852094" lon="-15.625171">
    <time>1971-01-13T12:43:25Z</time>
  <cmt>extensions = 1.17</cmt>
    </trkpt>
    <trkpt lat="27.852447" lon="-15.625344">
    <time>1971-01-13T12:44:03Z</time>
  <cmt>extensions = 1.58</cmt>
    </trkpt>
    <trkpt lat="27.852743" lon="-15.625455">
    <time>1971-01-13T12:44:34Z</time>
  <cmt>extensions = 2.07</cmt>
    </trkpt>
    <trkpt lat="27.852987" lon="-15.625416">
    <time>1971-01-13T12:44:59Z</time>
  <cmt>extensions = 1.96</cmt>
    </trkpt>
    <trkpt lat="27.853164" lon="-15.625353">
    <time>1971-01-13T12:45:17Z</time>
  <cmt>extensions = 1.48</cmt>
    </trkpt>
    <trkpt lat="27.853345" lon="-15.625053">
    <time>1971-01-13T12:45:50Z</time>
  <cmt>extensions = 2.40</cmt>
    </trkpt>
    <trkpt lat="27.853307" lon="-15.624914">
    <time>1971-01-13T12:46:02Z</time>
  <cmt>extensions = 2.39</cmt>
    </trkpt>
    <trkpt lat="27.853212" lon="-15.624777">
    <time>1971-01-13T12:46:18Z</time>
  <cmt>extensions = 2.45</cmt>
    </trkpt>
    <trkpt lat="27.853148" lon="-15.62471">
    <time>1971-01-13T12:46:26Z</time>
  <cmt>extensions = 2.43</cmt>
    </trkpt>
    <trkpt lat="27.853239" lon="-15.624605">
    <time>1971-01-13T12:46:39Z</time>
  <cmt>extensions = 0.78</cmt>
    </trkpt>
    <trkpt lat="27.853248" lon="-15.624468">
    <time>1971-01-13T12:46:52Z</time>
  <cmt>extensions = 0.98</cmt>
    </trkpt>
    <trkpt lat="27.853498" lon="-15.624118">
    <time>1971-01-13T12:47:31Z</time>
  <cmt>extensions = 1.19</cmt>
    </trkpt>
    <trkpt lat="27.853874" lon="-15.623857">
    <time>1971-01-13T12:48:15Z</time>
  <cmt>extensions = 1.55</cmt>
    </trkpt>
    <trkpt lat="27.854144" lon="-15.623714">
    <time>1971-01-13T12:48:45Z</time>
  <cmt>extensions = 1.88</cmt>
    </trkpt>
    <trkpt lat="27.854231" lon="-15.623709">
    <time>1971-01-13T12:48:54Z</time>
  <cmt>extensions = 1.39</cmt>
    </trkpt>
    <trkpt lat="27.854388" lon="-15.623724">
    <time>1971-01-13T12:49:10Z</time>
  <cmt>extensions = 1.35</cmt>
    </trkpt>
    <trkpt lat="27.85447" lon="-15.623741">
    <time>1971-01-13T12:49:18Z</time>
  <cmt>extensions = 1.33</cmt>
    </trkpt>
    <trkpt lat="27.854859" lon="-15.623923">
    <time>1971-01-13T12:50:00Z</time>
  <cmt>extensions = 1.59</cmt>
    </trkpt>
    <trkpt lat="27.855012" lon="-15.624042">
    <time>1971-01-13T12:50:18Z</time>
  <cmt>extensions = 1.59</cmt>
    </trkpt>
    <trkpt lat="27.855153" lon="-15.624048">
    <time>1971-01-13T12:50:33Z</time>
  <cmt>extensions = 1.31</cmt>
    </trkpt>
    <trkpt lat="27.855316" lon="-15.623995">
    <time>1971-01-13T12:50:49Z</time>
  <cmt>extensions = 1.21</cmt>
    </trkpt>
    <trkpt lat="27.855446" lon="-15.623917">
    <time>1971-01-13T12:51:04Z</time>
  <cmt>extensions = 1.37</cmt>
    </trkpt>
    <trkpt lat="27.85558" lon="-15.623755">
    <time>1971-01-13T12:51:24Z</time>
  <cmt>extensions = 1.46</cmt>
    </trkpt>
    <trkpt lat="27.855734" lon="-15.623604">
    <time>1971-01-13T12:51:44Z</time>
  <cmt>extensions = 1.62</cmt>
    </trkpt>
    <trkpt lat="27.855915" lon="-15.623509">
    <time>1971-01-13T12:52:04Z</time>
  <cmt>extensions = 1.71</cmt>
    </trkpt>
    <trkpt lat="27.856198" lon="-15.623467">
    <time>1971-01-13T12:52:32Z</time>
  <cmt>extensions = 2.44</cmt>
    </trkpt>
    <trkpt lat="27.856393" lon="-15.623465">
    <time>1971-01-13T12:52:52Z</time>
  <cmt>extensions = 1.67</cmt>
    </trkpt>
    <trkpt lat="27.856575" lon="-15.623489">
    <time>1971-01-13T12:53:10Z</time>
  <cmt>extensions = 1.46</cmt>
    </trkpt>
    <trkpt lat="27.856763" lon="-15.623466">
    <time>1971-01-13T12:53:29Z</time>
  <cmt>extensions = 1.62</cmt>
    </trkpt>
    <trkpt lat="27.856932" lon="-15.623467">
    <time>1971-01-13T12:53:46Z</time>
  <cmt>extensions = 1.38</cmt>
    </trkpt>
    <trkpt lat="27.857178" lon="-15.623414">
    <time>1971-01-13T12:54:11Z</time>
  <cmt>extensions = 0.38</cmt>
    </trkpt>
    <trkpt lat="27.857352" lon="-15.623331">
    <time>1971-01-13T12:54:30Z</time>
  <cmt>extensions = 1.00</cmt>
    </trkpt>
    <trkpt lat="27.857493" lon="-15.623304">
    <time>1971-01-13T12:54:44Z</time>
  <cmt>extensions = 1.47</cmt>
    </trkpt>
    <trkpt lat="27.85775" lon="-15.623089">
    <time>1971-01-13T12:55:16Z</time>
  <cmt>extensions = 1.52</cmt>
    </trkpt>
    <trkpt lat="27.857907" lon="-15.623012">
    <time>1971-01-13T12:55:33Z</time>
  <cmt>extensions = 1.36</cmt>
    </trkpt>
    <trkpt lat="27.858092" lon="-15.623008">
    <time>1971-01-13T12:55:51Z</time>
  <cmt>extensions = 1.47</cmt>
    </trkpt>
    <trkpt lat="27.858482" lon="-15.622937">
    <time>1971-01-13T12:56:31Z</time>
  <cmt>extensions = 1.62</cmt>
    </trkpt>
    <trkpt lat="27.858663" lon="-15.622966">
    <time>1971-01-13T12:56:49Z</time>
  <cmt>extensions = 1.42</cmt>
    </trkpt>
    <trkpt lat="27.858775" lon="-15.623039">
    <time>1971-01-13T12:57:02Z</time>
  <cmt>extensions = 1.31</cmt>
    </trkpt>
    <trkpt lat="27.858942" lon="-15.623096">
    <time>1971-01-13T12:57:19Z</time>
  <cmt>extensions = 1.39</cmt>
    </trkpt>
    <trkpt lat="27.859096" lon="-15.623111">
    <time>1971-01-13T12:57:35Z</time>
  <cmt>extensions = 1.51</cmt>
    </trkpt>
    <trkpt lat="27.859433" lon="-15.62326">
    <time>1971-01-13T12:58:11Z</time>
  <cmt>extensions = 1.23</cmt>
    </trkpt>
    <trkpt lat="27.85956" lon="-15.623293">
    <time>1971-01-13T12:58:24Z</time>
  <cmt>extensions = 1.12</cmt>
    </trkpt>
    <trkpt lat="27.859647" lon="-15.623336">
    <time>1971-01-13T12:58:33Z</time>
  <cmt>extensions = 0.56</cmt>
    </trkpt>
    <trkpt lat="27.859937" lon="-15.623438">
    <time>1971-01-13T12:59:04Z</time>
  <cmt>extensions = 1.36</cmt>
    </trkpt>
    <trkpt lat="27.860053" lon="-15.623341">
    <time>1971-01-13T12:59:18Z</time>
  <cmt>extensions = 0.85</cmt>
    </trkpt>
    <trkpt lat="27.860197" lon="-15.623461">
    <time>1971-01-13T12:59:36Z</time>
  <cmt>extensions = 1.05</cmt>
    </trkpt>
    <trkpt lat="27.860359" lon="-15.623568">
    <time>1971-01-13T12:59:55Z</time>
  <cmt>extensions = 1.35</cmt>
    </trkpt>
    <trkpt lat="27.860542" lon="-15.623583">
    <time>1971-01-13T13:00:13Z</time>
  <cmt>extensions = 1.24</cmt>
    </trkpt>
    <trkpt lat="27.861229" lon="-15.62372">
    <time>1971-01-13T13:01:22Z</time>
  <cmt>extensions = 1.38</cmt>
    </trkpt>
    <trkpt lat="27.861311" lon="-15.623778">
    <time>1971-01-13T13:01:32Z</time>
  <cmt>extensions = 0.34</cmt>
    </trkpt>
    <trkpt lat="27.86143" lon="-15.623754">
    <time>1971-01-13T13:01:44Z</time>
  <cmt>extensions = 0.34</cmt>
    </trkpt>
    <trkpt lat="27.861573" lon="-15.623786">
    <time>1971-01-13T13:01:59Z</time>
  <cmt>extensions = 0.97</cmt>
    </trkpt>
    <trkpt lat="27.861664" lon="-15.623784">
    <time>1971-01-13T13:02:08Z</time>
  <cmt>extensions = 0.18</cmt>
    </trkpt>
    <trkpt lat="27.861775" lon="-15.623706">
    <time>1971-01-13T13:02:21Z</time>
  <cmt>extensions = 1.21</cmt>
    </trkpt>
    <trkpt lat="27.861953" lon="-15.623724">
    <time>1971-01-13T13:02:39Z</time>
  <cmt>extensions = 1.33</cmt>
    </trkpt>
    <trkpt lat="27.8621" lon="-15.623685">
    <time>1971-01-13T13:02:54Z</time>
  <cmt>extensions = 1.17</cmt>
    </trkpt>
    <trkpt lat="27.862198" lon="-15.623695">
    <time>1971-01-13T13:03:04Z</time>
  <cmt>extensions = 1.10</cmt>
    </trkpt>
    <trkpt lat="27.862289" lon="-15.623642">
    <time>1971-01-13T13:03:14Z</time>
  <cmt>extensions = 1.42</cmt>
    </trkpt>
    <trkpt lat="27.862364" lon="-15.623624">
    <time>1971-01-13T13:03:21Z</time>
  <cmt>extensions = 1.42</cmt>
    </trkpt>
    <trkpt lat="27.862451" lon="-15.623588">
    <time>1971-01-13T13:03:31Z</time>
  <cmt>extensions = 1.29</cmt>
    </trkpt>
    <trkpt lat="27.86265" lon="-15.623553">
    <time>1971-01-13T13:03:51Z</time>
  <cmt>extensions = 1.32</cmt>
    </trkpt>
    <trkpt lat="27.862765" lon="-15.623482">
    <time>1971-01-13T13:04:04Z</time>
  <cmt>extensions = 1.04</cmt>
    </trkpt>
    <trkpt lat="27.862838" lon="-15.623388">
    <time>1971-01-13T13:04:15Z</time>
  <cmt>extensions = 0.98</cmt>
    </trkpt>
    <trkpt lat="27.86296" lon="-15.623422">
    <time>1971-01-13T13:04:27Z</time>
  <cmt>extensions = 0.78</cmt>
    </trkpt>
    <trkpt lat="27.863025" lon="-15.623481">
    <time>1971-01-13T13:04:36Z</time>
  <cmt>extensions = 0.77</cmt>
    </trkpt>
    <trkpt lat="27.86309" lon="-15.623484">
    <time>1971-01-13T13:04:42Z</time>
  <cmt>extensions = 0.91</cmt>
    </trkpt>
    <trkpt lat="27.863246" lon="-15.623516">
    <time>1971-01-13T13:04:58Z</time>
  <cmt>extensions = 1.18</cmt>
    </trkpt>
    <trkpt lat="27.863406" lon="-15.623494">
    <time>1971-01-13T13:05:14Z</time>
  <cmt>extensions = 1.20</cmt>
    </trkpt>
    <trkpt lat="27.863523" lon="-15.623461">
    <time>1971-01-13T13:05:26Z</time>
  <cmt>extensions = 1.12</cmt>
    </trkpt>
    <trkpt lat="27.863743" lon="-15.623373">
    <time>1971-01-13T13:05:49Z</time>
  <cmt>extensions = 0.83</cmt>
    </trkpt>
    <trkpt lat="27.863934" lon="-15.623344">
    <time>1971-01-13T13:06:09Z</time>
  <cmt>extensions = 0.16</cmt>
    </trkpt>
    <trkpt lat="27.863991" lon="-15.623313">
    <time>1971-01-13T13:06:15Z</time>
  <cmt>extensions = 1.76</cmt>
    </trkpt>
    <trkpt lat="27.86414" lon="-15.623208">
    <time>1971-01-13T13:06:32Z</time>
  <cmt>extensions = 1.22</cmt>
    </trkpt>
    <trkpt lat="27.864205" lon="-15.623207">
    <time>1971-01-13T13:06:39Z</time>
  <cmt>extensions = 1.40</cmt>
    </trkpt>
    <trkpt lat="27.864432" lon="-15.623111">
    <time>1971-01-13T13:07:03Z</time>
  <cmt>extensions = 1.42</cmt>
    </trkpt>
    <trkpt lat="27.864494" lon="-15.623055">
    <time>1971-01-13T13:07:11Z</time>
  <cmt>extensions = 1.47</cmt>
    </trkpt>
    <trkpt lat="27.864615" lon="-15.622868">
    <time>1971-01-13T13:07:32Z</time>
  <cmt>extensions = 1.70</cmt>
    </trkpt>
    <trkpt lat="27.864659" lon="-15.622816">
    <time>1971-01-13T13:07:38Z</time>
  <cmt>extensions = 1.42</cmt>
    </trkpt>
    <trkpt lat="27.864933" lon="-15.622677">
    <time>1971-01-13T13:08:08Z</time>
  <cmt>extensions = 1.61</cmt>
    </trkpt>
    <trkpt lat="27.865069" lon="-15.622506">
    <time>1971-01-13T13:08:28Z</time>
  <cmt>extensions = 1.62</cmt>
    </trkpt>
    <trkpt lat="27.865248" lon="-15.622388">
    <time>1971-01-13T13:08:49Z</time>
  <cmt>extensions = 1.50</cmt>
    </trkpt>
    <trkpt lat="27.865415" lon="-15.622413">
    <time>1971-01-13T13:09:06Z</time>
  <cmt>extensions = 1.70</cmt>
    </trkpt>
    <trkpt lat="27.866188" lon="-15.622205">
    <time>1971-01-13T13:10:25Z</time>
  <cmt>extensions = 1.59</cmt>
    </trkpt>
    <trkpt lat="27.866281" lon="-15.622228">
    <time>1971-01-13T13:10:34Z</time>
  <cmt>extensions = 1.46</cmt>
    </trkpt>
    <trkpt lat="27.866448" lon="-15.622195">
    <time>1971-01-13T13:10:51Z</time>
  <cmt>extensions = 1.35</cmt>
    </trkpt>
    <trkpt lat="27.866518" lon="-15.622223">
    <time>1971-01-13T13:10:59Z</time>
  <cmt>extensions = 1.03</cmt>
    </trkpt>
    <trkpt lat="27.866708" lon="-15.622265">
    <time>1971-01-13T13:11:18Z</time>
  <cmt>extensions = 1.06</cmt>
    </trkpt>
    <trkpt lat="27.866791" lon="-15.62225">
    <time>1971-01-13T13:11:26Z</time>
  <cmt>extensions = 0.67</cmt>
    </trkpt>
    <trkpt lat="27.866865" lon="-15.622265">
    <time>1971-01-13T13:11:34Z</time>
  <cmt>extensions = 0.70</cmt>
    </trkpt>
    <trkpt lat="27.866946" lon="-15.622321">
    <time>1971-01-13T13:11:43Z</time>
  <cmt>extensions = 0.81</cmt>
    </trkpt>
    <trkpt lat="27.867025" lon="-15.622325">
    <time>1971-01-13T13:11:51Z</time>
  <cmt>extensions = 0.68</cmt>
    </trkpt>
    <trkpt lat="27.867066" lon="-15.622498">
    <time>1971-01-13T13:12:07Z</time>
  <cmt>extensions = 0.81</cmt>
    </trkpt>
    <trkpt lat="27.86714" lon="-15.622584">
    <time>1971-01-13T13:12:18Z</time>
  <cmt>extensions = 0.71</cmt>
    </trkpt>
    <trkpt lat="27.867089" lon="-15.622708">
    <time>1971-01-13T13:12:30Z</time>
  <cmt>extensions = 0.96</cmt>
    </trkpt>
    <trkpt lat="27.867242" lon="-15.622749">
    <time>1971-01-13T13:12:45Z</time>
  <cmt>extensions = 1.12</cmt>
    </trkpt>
    <trkpt lat="27.867365" lon="-15.622821">
    <time>1971-01-13T13:12:59Z</time>
  <cmt>extensions = 0.86</cmt>
    </trkpt>
    <trkpt lat="27.867381" lon="-15.622926">
    <time>1971-01-13T13:13:09Z</time>
  <cmt>extensions = 0.65</cmt>
    </trkpt>
    <trkpt lat="27.867559" lon="-15.622935">
    <time>1971-01-13T13:13:26Z</time>
  <cmt>extensions = 0.87</cmt>
    </trkpt>
    <trkpt lat="27.867617" lon="-15.622957">
    <time>1971-01-13T13:13:33Z</time>
  <cmt>extensions = 0.62</cmt>
    </trkpt>
    <trkpt lat="27.867635" lon="-15.622721">
    <time>1971-01-13T13:13:54Z</time>
  <cmt>extensions = 1.12</cmt>
    </trkpt>
    <trkpt lat="27.867723" lon="-15.62243">
    <time>1971-01-13T13:14:21Z</time>
  <cmt>extensions = 1.00</cmt>
    </trkpt>
    <trkpt lat="27.867717" lon="-15.622252">
    <time>1971-01-13T13:14:37Z</time>
  <cmt>extensions = 0.79</cmt>
    </trkpt>
    <trkpt lat="27.867807" lon="-15.621968">
    <time>1971-01-13T13:15:03Z</time>
  <cmt>extensions = 0.81</cmt>
    </trkpt>
    <trkpt lat="27.86787" lon="-15.621931">
    <time>1971-01-13T13:15:10Z</time>
  <cmt>extensions = 0.53</cmt>
    </trkpt>
    <trkpt lat="27.867907" lon="-15.621855">
    <time>1971-01-13T13:15:18Z</time>
  <cmt>extensions = 0.49</cmt>
    </trkpt>
    <trkpt lat="27.867976" lon="-15.621808">
    <time>1971-01-13T13:15:26Z</time>
  <cmt>extensions = 0.64</cmt>
    </trkpt>
    <trkpt lat="27.868013" lon="-15.621727">
    <time>1971-01-13T13:15:34Z</time>
  <cmt>extensions = 0.69</cmt>
    </trkpt>
    <trkpt lat="27.868064" lon="-15.621671">
    <time>1971-01-13T13:15:41Z</time>
  <cmt>extensions = 0.61</cmt>
    </trkpt>
    <trkpt lat="27.868122" lon="-15.62157">
    <time>1971-01-13T13:15:52Z</time>
  <cmt>extensions = 0.81</cmt>
    </trkpt>
    <trkpt lat="27.868339" lon="-15.621451">
    <time>1971-01-13T13:16:16Z</time>
  <cmt>extensions = 0.28</cmt>
    </trkpt>
    <trkpt lat="27.868396" lon="-15.621402">
    <time>1971-01-13T13:16:23Z</time>
  <cmt>extensions = 1.14</cmt>
    </trkpt>
    <trkpt lat="27.868478" lon="-15.621288">
    <time>1971-01-13T13:16:36Z</time>
  <cmt>extensions = 0.77</cmt>
    </trkpt>
    <trkpt lat="27.868564" lon="-15.621221">
    <time>1971-01-13T13:16:46Z</time>
  <cmt>extensions = 0.68</cmt>
    </trkpt>
    <trkpt lat="27.868695" lon="-15.621195">
    <time>1971-01-13T13:17:00Z</time>
  <cmt>extensions = 1.14</cmt>
    </trkpt>
    <trkpt lat="27.868856" lon="-15.621248">
    <time>1971-01-13T13:17:16Z</time>
  <cmt>extensions = 0.88</cmt>
    </trkpt>
    <trkpt lat="27.868956" lon="-15.621243">
    <time>1971-01-13T13:17:26Z</time>
  <cmt>extensions = 0.80</cmt>
    </trkpt>
    <trkpt lat="27.869038" lon="-15.621278">
    <time>1971-01-13T13:17:35Z</time>
  <cmt>extensions = 0.56</cmt>
    </trkpt>
    <trkpt lat="27.869134" lon="-15.621253">
    <time>1971-01-13T13:17:45Z</time>
  <cmt>extensions = 2.01</cmt>
    </trkpt>
    <trkpt lat="27.869196" lon="-15.621273">
    <time>1971-01-13T13:17:51Z</time>
  <cmt>extensions = 0.27</cmt>
    </trkpt>
    <trkpt lat="27.869387" lon="-15.62113">
    <time>1971-01-13T13:18:14Z</time>
  <cmt>extensions = 0.88</cmt>
    </trkpt>
    <trkpt lat="27.869463" lon="-15.621093">
    <time>1971-01-13T13:18:23Z</time>
  <cmt>extensions = 0.71</cmt>
    </trkpt>
    <trkpt lat="27.869531" lon="-15.621048">
    <time>1971-01-13T13:18:30Z</time>
  <cmt>extensions = 0.73</cmt>
    </trkpt>
    <trkpt lat="27.869598" lon="-15.621035">
    <time>1971-01-13T13:18:37Z</time>
  <cmt>extensions = 0.63</cmt>
    </trkpt>
    <trkpt lat="27.869712" lon="-15.620998">
    <time>1971-01-13T13:18:49Z</time>
  <cmt>extensions = 0.85</cmt>
    </trkpt>
    <trkpt lat="27.86984" lon="-15.620912">
    <time>1971-01-13T13:19:04Z</time>
  <cmt>extensions = 0.90</cmt>
    </trkpt>
    <trkpt lat="27.8699" lon="-15.620849">
    <time>1971-01-13T13:19:12Z</time>
  <cmt>extensions = 0.91</cmt>
    </trkpt>
    <trkpt lat="27.86998" lon="-15.620732">
    <time>1971-01-13T13:19:25Z</time>
  <cmt>extensions = 1.32</cmt>
    </trkpt>
    <trkpt lat="27.870086" lon="-15.620695">
    <time>1971-01-13T13:19:36Z</time>
  <cmt>extensions = 1.03</cmt>
    </trkpt>
    <trkpt lat="27.870189" lon="-15.620617">
    <time>1971-01-13T13:19:49Z</time>
  <cmt>extensions = 1.15</cmt>
    </trkpt>
    <trkpt lat="27.870271" lon="-15.620538">
    <time>1971-01-13T13:19:59Z</time>
  <cmt>extensions = 0.56</cmt>
    </trkpt>
    <trkpt lat="27.870336" lon="-15.620596">
    <time>1971-01-13T13:20:08Z</time>
  <cmt>extensions = 0.31</cmt>
    </trkpt>
    <trkpt lat="27.870398" lon="-15.620706">
    <time>1971-01-13T13:20:19Z</time>
  <cmt>extensions = 0.37</cmt>
    </trkpt>
    <trkpt lat="27.870512" lon="-15.62086">
    <time>1971-01-13T13:20:37Z</time>
  <cmt>extensions = 1.13</cmt>
    </trkpt>
    <trkpt lat="27.870827" lon="-15.62114">
    <time>1971-01-13T13:21:17Z</time>
  <cmt>extensions = 0.96</cmt>
    </trkpt>
    <trkpt lat="27.87091" lon="-15.621167">
    <time>1971-01-13T13:21:25Z</time>
  <cmt>extensions = 1.37</cmt>
    </trkpt>
    <trkpt lat="27.871152" lon="-15.621346">
    <time>1971-01-13T13:21:54Z</time>
  <cmt>extensions = 1.27</cmt>
    </trkpt>
    <trkpt lat="27.871219" lon="-15.621344">
    <time>1971-01-13T13:22:01Z</time>
  <cmt>extensions = 1.07</cmt>
    </trkpt>
    <trkpt lat="27.871267" lon="-15.62139">
    <time>1971-01-13T13:22:07Z</time>
  <cmt>extensions = 1.40</cmt>
    </trkpt>
    <trkpt lat="27.871456" lon="-15.62149">
    <time>1971-01-13T13:22:28Z</time>
  <cmt>extensions = 0.20</cmt>
    </trkpt>
    <trkpt lat="27.871872" lon="-15.621452">
    <time>1971-01-13T13:23:10Z</time>
  <cmt>extensions = 1.42</cmt>
    </trkpt>
    <trkpt lat="27.871989" lon="-15.621483">
    <time>1971-01-13T13:23:22Z</time>
  <cmt>extensions = 1.34</cmt>
    </trkpt>
    <trkpt lat="27.872107" lon="-15.621473">
    <time>1971-01-13T13:23:34Z</time>
  <cmt>extensions = 1.26</cmt>
    </trkpt>
    <trkpt lat="27.87231" lon="-15.621489">
    <time>1971-01-13T13:23:54Z</time>
  <cmt>extensions = 0.06</cmt>
    </trkpt>
    <trkpt lat="27.872242" lon="-15.621517">
    <time>1971-01-13T13:24:01Z</time>
  <cmt>extensions = 0.33</cmt>
    </trkpt>
    <trkpt lat="27.872011" lon="-15.621571">
    <time>1971-01-13T13:24:25Z</time>
  <cmt>extensions = 1.31</cmt>
    </trkpt>
    <trkpt lat="27.8718" lon="-15.621527">
    <time>1971-01-13T13:24:46Z</time>
  <cmt>extensions = 0.50</cmt>
    </trkpt>
    <trkpt lat="27.871364" lon="-15.621513">
    <time>1971-01-13T13:25:30Z</time>
  <cmt>extensions = 1.58</cmt>
    </trkpt>
    <trkpt lat="27.871299" lon="-15.621522">
    <time>1971-01-13T13:25:36Z</time>
  <cmt>extensions = 1.21</cmt>
    </trkpt>
    <trkpt lat="27.871084" lon="-15.621481">
    <time>1971-01-13T13:25:58Z</time>
  <cmt>extensions = 1.52</cmt>
    </trkpt>
    <trkpt lat="27.870875" lon="-15.621465">
    <time>1971-01-13T13:26:19Z</time>
  <cmt>extensions = 1.27</cmt>
    </trkpt>
    <trkpt lat="27.870751" lon="-15.621442">
    <time>1971-01-13T13:26:31Z</time>
  <cmt>extensions = 1.40</cmt>
    </trkpt>
    <trkpt lat="27.870624" lon="-15.621399">
    <time>1971-01-13T13:26:44Z</time>
  <cmt>extensions = 1.24</cmt>
    </trkpt>
    <trkpt lat="27.870441" lon="-15.621369">
    <time>1971-01-13T13:27:03Z</time>
  <cmt>extensions = 1.29</cmt>
    </trkpt>
    <trkpt lat="27.870374" lon="-15.621381">
    <time>1971-01-13T13:27:10Z</time>
  <cmt>extensions = 1.51</cmt>
    </trkpt>
    <trkpt lat="27.869844" lon="-15.621187">
    <time>1971-01-13T13:28:05Z</time>
  <cmt>extensions = 1.27</cmt>
    </trkpt>
    <trkpt lat="27.869739" lon="-15.621189">
    <time>1971-01-13T13:28:16Z</time>
  <cmt>extensions = 0.90</cmt>
    </trkpt>
    <trkpt lat="27.869646" lon="-15.621128">
    <time>1971-01-13T13:28:26Z</time>
  <cmt>extensions = 1.53</cmt>
    </trkpt>
    <trkpt lat="27.869535" lon="-15.621112">
    <time>1971-01-13T13:28:38Z</time>
  <cmt>extensions = 1.63</cmt>
    </trkpt>
    <trkpt lat="27.869453" lon="-15.621156">
    <time>1971-01-13T13:28:47Z</time>
  <cmt>extensions = 0.43</cmt>
    </trkpt>
    <trkpt lat="27.869271" lon="-15.621193">
    <time>1971-01-13T13:29:05Z</time>
  <cmt>extensions = 1.42</cmt>
    </trkpt>
    <trkpt lat="27.869154" lon="-15.621271">
    <time>1971-01-13T13:29:19Z</time>
  <cmt>extensions = 0.88</cmt>
    </trkpt>
    <trkpt lat="27.869127" lon="-15.621371">
    <time>1971-01-13T13:29:28Z</time>
  <cmt>extensions = 0.95</cmt>
    </trkpt>
    <trkpt lat="27.869058" lon="-15.621358">
    <time>1971-01-13T13:29:35Z</time>
  <cmt>extensions = 0.42</cmt>
    </trkpt>
    <trkpt lat="27.868998" lon="-15.621316">
    <time>1971-01-13T13:29:42Z</time>
  <cmt>extensions = 0.98</cmt>
    </trkpt>
    <trkpt lat="27.868937" lon="-15.621284">
    <time>1971-01-13T13:29:49Z</time>
  <cmt>extensions = 1.50</cmt>
    </trkpt>
    <trkpt lat="27.868862" lon="-15.621259">
    <time>1971-01-13T13:29:56Z</time>
  <cmt>extensions = 1.45</cmt>
    </trkpt>
    <trkpt lat="27.868701" lon="-15.62123">
    <time>1971-01-13T13:30:13Z</time>
  <cmt>extensions = 1.73</cmt>
    </trkpt>
    <trkpt lat="27.868585" lon="-15.62118">
    <time>1971-01-13T13:30:25Z</time>
  <cmt>extensions = 1.06</cmt>
    </trkpt>
    <trkpt lat="27.868518" lon="-15.621251">
    <time>1971-01-13T13:30:34Z</time>
  <cmt>extensions = 1.46</cmt>
    </trkpt>
    <trkpt lat="27.868433" lon="-15.621274">
    <time>1971-01-13T13:30:43Z</time>
  <cmt>extensions = 1.62</cmt>
    </trkpt>
    <trkpt lat="27.868362" lon="-15.621324">
    <time>1971-01-13T13:30:51Z</time>
  <cmt>extensions = 1.03</cmt>
    </trkpt>
    <trkpt lat="27.868279" lon="-15.621406">
    <time>1971-01-13T13:31:02Z</time>
  <cmt>extensions = 0.33</cmt>
    </trkpt>
    <trkpt lat="27.868241" lon="-15.62148">
    <time>1971-01-13T13:31:10Z</time>
  <cmt>extensions = 0.23</cmt>
    </trkpt>
    <trkpt lat="27.868155" lon="-15.621527">
    <time>1971-01-13T13:31:19Z</time>
  <cmt>extensions = 0.76</cmt>
    </trkpt>
    <trkpt lat="27.867874" lon="-15.62178">
    <time>1971-01-13T13:31:55Z</time>
  <cmt>extensions = 0.64</cmt>
    </trkpt>
    <trkpt lat="27.867846" lon="-15.621854">
    <time>1971-01-13T13:32:02Z</time>
  <cmt>extensions = 0.14</cmt>
    </trkpt>
    <trkpt lat="27.867821" lon="-15.622005">
    <time>1971-01-13T13:32:16Z</time>
  <cmt>extensions = 1.13</cmt>
    </trkpt>
    <trkpt lat="27.867765" lon="-15.622119">
    <time>1971-01-13T13:32:27Z</time>
  <cmt>extensions = 1.29</cmt>
    </trkpt>
    <trkpt lat="27.867695" lon="-15.62222">
    <time>1971-01-13T13:32:39Z</time>
  <cmt>extensions = 1.95</cmt>
    </trkpt>
    <trkpt lat="27.867755" lon="-15.622467">
    <time>1971-01-13T13:33:02Z</time>
  <cmt>extensions = 2.10</cmt>
    </trkpt>
    <trkpt lat="27.867733" lon="-15.622576">
    <time>1971-01-13T13:33:11Z</time>
  <cmt>extensions = 1.63</cmt>
    </trkpt>
    <trkpt lat="27.867623" lon="-15.622755">
    <time>1971-01-13T13:33:31Z</time>
  <cmt>extensions = 1.65</cmt>
    </trkpt>
    <trkpt lat="27.867615" lon="-15.622827">
    <time>1971-01-13T13:33:37Z</time>
  <cmt>extensions = 1.79</cmt>
    </trkpt>
    <trkpt lat="27.867484" lon="-15.622921">
    <time>1971-01-13T13:33:53Z</time>
  <cmt>extensions = 1.33</cmt>
    </trkpt>
    <trkpt lat="27.867386" lon="-15.622915">
    <time>1971-01-13T13:34:02Z</time>
  <cmt>extensions = 1.21</cmt>
    </trkpt>
    <trkpt lat="27.867339" lon="-15.622784">
    <time>1971-01-13T13:34:15Z</time>
  <cmt>extensions = 1.65</cmt>
    </trkpt>
    <trkpt lat="27.867222" lon="-15.622764">
    <time>1971-01-13T13:34:27Z</time>
  <cmt>extensions = 1.62</cmt>
    </trkpt>
    <trkpt lat="27.867126" lon="-15.622693">
    <time>1971-01-13T13:34:38Z</time>
  <cmt>extensions = 1.98</cmt>
    </trkpt>
    <trkpt lat="27.867135" lon="-15.622557">
    <time>1971-01-13T13:34:50Z</time>
  <cmt>extensions = 1.94</cmt>
    </trkpt>
    <trkpt lat="27.867054" lon="-15.622534">
    <time>1971-01-13T13:34:58Z</time>
  <cmt>extensions = 1.55</cmt>
    </trkpt>
    <trkpt lat="27.867023" lon="-15.622466">
    <time>1971-01-13T13:35:05Z</time>
  <cmt>extensions = 1.25</cmt>
    </trkpt>
    <trkpt lat="27.867006" lon="-15.622386">
    <time>1971-01-13T13:35:12Z</time>
  <cmt>extensions = 2.14</cmt>
    </trkpt>
    <trkpt lat="27.866937" lon="-15.622319">
    <time>1971-01-13T13:35:22Z</time>
  <cmt>extensions = 1.32</cmt>
    </trkpt>
    <trkpt lat="27.866879" lon="-15.622289">
    <time>1971-01-13T13:35:28Z</time>
  <cmt>extensions = 1.77</cmt>
    </trkpt>
    <trkpt lat="27.86676" lon="-15.622293">
    <time>1971-01-13T13:35:40Z</time>
  <cmt>extensions = 1.66</cmt>
    </trkpt>
    <trkpt lat="27.866405" lon="-15.622204">
    <time>1971-01-13T13:36:16Z</time>
  <cmt>extensions = 1.54</cmt>
    </trkpt>
    <trkpt lat="27.866199" lon="-15.622209">
    <time>1971-01-13T13:36:37Z</time>
  <cmt>extensions = 1.91</cmt>
    </trkpt>
    <trkpt lat="27.865977" lon="-15.622276">
    <time>1971-01-13T13:37:00Z</time>
  <cmt>extensions = 1.83</cmt>
    </trkpt>
    <trkpt lat="27.865791" lon="-15.622299">
    <time>1971-01-13T13:37:18Z</time>
  <cmt>extensions = 1.74</cmt>
    </trkpt>
    <trkpt lat="27.86559" lon="-15.622368">
    <time>1971-01-13T13:37:39Z</time>
  <cmt>extensions = 1.67</cmt>
    </trkpt>
    <trkpt lat="27.865384" lon="-15.622369">
    <time>1971-01-13T13:38:00Z</time>
  <cmt>extensions = 1.64</cmt>
    </trkpt>
    <trkpt lat="27.865019" lon="-15.62246">
    <time>1971-01-13T13:38:37Z</time>
  <cmt>extensions = 1.41</cmt>
    </trkpt>
    <trkpt lat="27.864955" lon="-15.622447">
    <time>1971-01-13T13:38:43Z</time>
  <cmt>extensions = 0.48</cmt>
    </trkpt>
    <trkpt lat="27.864869" lon="-15.622378">
    <time>1971-01-13T13:38:54Z</time>
  <cmt>extensions = 1.26</cmt>
    </trkpt>
    <trkpt lat="27.864779" lon="-15.622413">
    <time>1971-01-13T13:39:04Z</time>
  <cmt>extensions = 0.14</cmt>
    </trkpt>
    <trkpt lat="27.864759" lon="-15.622521">
    <time>1971-01-13T13:39:13Z</time>
  <cmt>extensions = 0.78</cmt>
    </trkpt>
    <trkpt lat="27.864697" lon="-15.622647">
    <time>1971-01-13T13:39:26Z</time>
  <cmt>extensions = 1.01</cmt>
    </trkpt>
    <trkpt lat="27.86456" lon="-15.622769">
    <time>1971-01-13T13:39:43Z</time>
  <cmt>extensions = 1.16</cmt>
    </trkpt>
    <trkpt lat="27.864508" lon="-15.62283">
    <time>1971-01-13T13:39:51Z</time>
  <cmt>extensions = 1.13</cmt>
    </trkpt>
    <trkpt lat="27.864427" lon="-15.622948">
    <time>1971-01-13T13:40:04Z</time>
  <cmt>extensions = 1.13</cmt>
    </trkpt>
    <trkpt lat="27.864227" lon="-15.623088">
    <time>1971-01-13T13:40:28Z</time>
  <cmt>extensions = 1.85</cmt>
    </trkpt>
    <trkpt lat="27.864008" lon="-15.623308">
    <time>1971-01-13T13:40:57Z</time>
  <cmt>extensions = 1.69</cmt>
    </trkpt>
    <trkpt lat="27.86369" lon="-15.623373">
    <time>1971-01-13T13:41:29Z</time>
  <cmt>extensions = 2.77</cmt>
    </trkpt>
    <trkpt lat="27.863374" lon="-15.623476">
    <time>1971-01-13T13:42:02Z</time>
  <cmt>extensions = 2.82</cmt>
    </trkpt>
    <trkpt lat="27.863303" lon="-15.62351">
    <time>1971-01-13T13:42:10Z</time>
  <cmt>extensions = 2.67</cmt>
    </trkpt>
    <trkpt lat="27.863222" lon="-15.623513">
    <time>1971-01-13T13:42:18Z</time>
  <cmt>extensions = 1.50</cmt>
    </trkpt>
    <trkpt lat="27.863048" lon="-15.623485">
    <time>1971-01-13T13:42:35Z</time>
  <cmt>extensions = 1.96</cmt>
    </trkpt>
    <trkpt lat="27.862814" lon="-15.623502">
    <time>1971-01-13T13:42:59Z</time>
  <cmt>extensions = 3.26</cmt>
    </trkpt>
    <trkpt lat="27.861998" lon="-15.623712">
    <time>1971-01-13T13:44:22Z</time>
  <cmt>extensions = 3.15</cmt>
    </trkpt>
    <trkpt lat="27.861466" lon="-15.623691">
    <time>1971-01-13T13:45:15Z</time>
  <cmt>extensions = 2.99</cmt>
    </trkpt>
    <trkpt lat="27.860759" lon="-15.62363">
    <time>1971-01-13T13:46:26Z</time>
  <cmt>extensions = 2.68</cmt>
    </trkpt>
    <trkpt lat="27.860506" lon="-15.623542">
    <time>1971-01-13T13:46:52Z</time>
  <cmt>extensions = 2.68</cmt>
    </trkpt>
    <trkpt lat="27.860332" lon="-15.6236">
    <time>1971-01-13T13:47:10Z</time>
  <cmt>extensions = 1.68</cmt>
    </trkpt>
    <trkpt lat="27.860261" lon="-15.623498">
    <time>1971-01-13T13:47:22Z</time>
  <cmt>extensions = 1.06</cmt>
    </trkpt>
    <trkpt lat="27.860072" lon="-15.623482">
    <time>1971-01-13T13:47:41Z</time>
  <cmt>extensions = 7.03</cmt>
    </trkpt>
    <trkpt lat="27.859996" lon="-15.623581">
    <time>1971-01-13T13:47:52Z</time>
  <cmt>extensions = 6.45</cmt>
    </trkpt>
    <trkpt lat="27.860005" lon="-15.623848">
    <time>1971-01-13T13:48:16Z</time>
  <cmt>extensions = 2.59</cmt>
    </trkpt>
    <trkpt lat="27.859976" lon="-15.624004">
    <time>1971-01-13T13:48:30Z</time>
  <cmt>extensions = 1.12</cmt>
    </trkpt>
    <trkpt lat="27.859991" lon="-15.624101">
    <time>1971-01-13T13:48:39Z</time>
  <cmt>extensions = 1.62</cmt>
    </trkpt>
    <trkpt lat="27.859961" lon="-15.624242">
    <time>1971-01-13T13:48:52Z</time>
  <cmt>extensions = 1.43</cmt>
    </trkpt>
    <trkpt lat="27.860013" lon="-15.624336">
    <time>1971-01-13T13:49:01Z</time>
  <cmt>extensions = 1.33</cmt>
    </trkpt>
    <trkpt lat="27.86003" lon="-15.624503">
    <time>1971-01-13T13:49:16Z</time>
  <cmt>extensions = 1.18</cmt>
    </trkpt>
    <trkpt lat="27.859779" lon="-15.62469">
    <time>1971-01-13T13:49:46Z</time>
  <cmt>extensions = 1.49</cmt>
    </trkpt>
    <trkpt lat="27.8592" lon="-15.62479">
    <time>1971-01-13T13:50:45Z</time>
  <cmt>extensions = 1.51</cmt>
    </trkpt>
    <trkpt lat="27.859017" lon="-15.624757">
    <time>1971-01-13T13:51:03Z</time>
  <cmt>extensions = 1.42</cmt>
    </trkpt>
    <trkpt lat="27.858907" lon="-15.624834">
    <time>1971-01-13T13:51:16Z</time>
  <cmt>extensions = 1.44</cmt>
    </trkpt>
    <trkpt lat="27.858541" lon="-15.624919">
    <time>1971-01-13T13:51:53Z</time>
  <cmt>extensions = 1.39</cmt>
    </trkpt>
    <trkpt lat="27.858476" lon="-15.624886">
    <time>1971-01-13T13:52:00Z</time>
  <cmt>extensions = 1.32</cmt>
    </trkpt>
    <trkpt lat="27.858342" lon="-15.625021">
    <time>1971-01-13T13:52:18Z</time>
  <cmt>extensions = 0.80</cmt>
    </trkpt>
    <trkpt lat="27.858173" lon="-15.62506">
    <time>1971-01-13T13:52:36Z</time>
  <cmt>extensions = 1.75</cmt>
    </trkpt>
    <trkpt lat="27.858026" lon="-15.625071">
    <time>1971-01-13T13:52:50Z</time>
  <cmt>extensions = 1.30</cmt>
    </trkpt>
    <trkpt lat="27.857928" lon="-15.625105">
    <time>1971-01-13T13:53:00Z</time>
  <cmt>extensions = 1.43</cmt>
    </trkpt>
    <trkpt lat="27.857797" lon="-15.625106">
    <time>1971-01-13T13:53:14Z</time>
  <cmt>extensions = 1.46</cmt>
    </trkpt>
    <trkpt lat="27.857725" lon="-15.625094">
    <time>1971-01-13T13:53:21Z</time>
  <cmt>extensions = 1.35</cmt>
    </trkpt>
    <trkpt lat="27.857615" lon="-15.625116">
    <time>1971-01-13T13:53:32Z</time>
  <cmt>extensions = 1.38</cmt>
    </trkpt>
    <trkpt lat="27.857539" lon="-15.625219">
    <time>1971-01-13T13:53:44Z</time>
  <cmt>extensions = 1.02</cmt>
    </trkpt>
    <trkpt lat="27.857437" lon="-15.625291">
    <time>1971-01-13T13:53:56Z</time>
  <cmt>extensions = 1.03</cmt>
    </trkpt>
    <trkpt lat="27.857376" lon="-15.625315">
    <time>1971-01-13T13:54:02Z</time>
  <cmt>extensions = 1.44</cmt>
    </trkpt>
    <trkpt lat="27.857308" lon="-15.625385">
    <time>1971-01-13T13:54:11Z</time>
  <cmt>extensions = 1.46</cmt>
    </trkpt>
    <trkpt lat="27.85722" lon="-15.625433">
    <time>1971-01-13T13:54:21Z</time>
  <cmt>extensions = 1.55</cmt>
    </trkpt>
    <trkpt lat="27.857102" lon="-15.625623">
    <time>1971-01-13T13:54:42Z</time>
  <cmt>extensions = 1.41</cmt>
    </trkpt>
    <trkpt lat="27.857055" lon="-15.625777">
    <time>1971-01-13T13:54:56Z</time>
  <cmt>extensions = 1.05</cmt>
    </trkpt>
    <trkpt lat="27.856958" lon="-15.625837">
    <time>1971-01-13T13:55:07Z</time>
  <cmt>extensions = 1.03</cmt>
    </trkpt>
    <trkpt lat="27.856862" lon="-15.625913">
    <time>1971-01-13T13:55:19Z</time>
  <cmt>extensions = 0.70</cmt>
    </trkpt>
    <trkpt lat="27.856793" lon="-15.626035">
    <time>1971-01-13T13:55:32Z</time>
  <cmt>extensions = 0.83</cmt>
    </trkpt>
    <trkpt lat="27.856611" lon="-15.626132">
    <time>1971-01-13T13:55:52Z</time>
  <cmt>extensions = 0.48</cmt>
    </trkpt>
    <trkpt lat="27.856489" lon="-15.626154">
    <time>1971-01-13T13:56:04Z</time>
  <cmt>extensions = 0.49</cmt>
    </trkpt>
    <trkpt lat="27.856418" lon="-15.626157">
    <time>1971-01-13T13:56:11Z</time>
  <cmt>extensions = 0.66</cmt>
    </trkpt>
    <trkpt lat="27.856308" lon="-15.626213">
    <time>1971-01-13T13:56:23Z</time>
  <cmt>extensions = 0.74</cmt>
    </trkpt>
    <trkpt lat="27.856072" lon="-15.626229">
    <time>1971-01-13T13:56:47Z</time>
  <cmt>extensions = 1.24</cmt>
    </trkpt>
    <trkpt lat="27.856069" lon="-15.626482">
    <time>1971-01-13T13:57:09Z</time>
  <cmt>extensions = 2.07</cmt>
    </trkpt>
    <trkpt lat="27.856119" lon="-15.626828">
    <time>1971-01-13T13:57:40Z</time>
  <cmt>extensions = 1.22</cmt>
    </trkpt>
    <trkpt lat="27.85611" lon="-15.6269">
    <time>1971-01-13T13:57:47Z</time>
  <cmt>extensions = 0.65</cmt>
    </trkpt>
    <trkpt lat="27.856145" lon="-15.626967">
    <time>1971-01-13T13:57:54Z</time>
  <cmt>extensions = 0.64</cmt>
    </trkpt>
    <trkpt lat="27.856192" lon="-15.62702">
    <time>1971-01-13T13:58:00Z</time>
  <cmt>extensions = 1.23</cmt>
    </trkpt>
    <trkpt lat="27.856312" lon="-15.627204">
    <time>1971-01-13T13:58:20Z</time>
  <cmt>extensions = 0.19</cmt>
    </trkpt>
    <trkpt lat="27.856226" lon="-15.627151">
    <time>1971-01-13T13:58:30Z</time>
  <cmt>extensions = 0.02</cmt>
    </trkpt>
    <trkpt lat="27.856197" lon="-15.627089">
    <time>1971-01-13T13:58:36Z</time>
  <cmt>extensions = 0.84</cmt>
    </trkpt>
    <trkpt lat="27.856183" lon="-15.627021">
    <time>1971-01-13T13:58:42Z</time>
  <cmt>extensions = 0.99</cmt>
    </trkpt>
    <trkpt lat="27.856072" lon="-15.626891">
    <time>1971-01-13T13:58:58Z</time>
  <cmt>extensions = 1.19</cmt>
    </trkpt>
    <trkpt lat="27.856007" lon="-15.626864">
    <time>1971-01-13T13:59:05Z</time>
  <cmt>extensions = 1.28</cmt>
    </trkpt>
    <trkpt lat="27.855921" lon="-15.626673">
    <time>1971-01-13T13:59:24Z</time>
  <cmt>extensions = 1.09</cmt>
    </trkpt>
    <trkpt lat="27.855747" lon="-15.626615">
    <time>1971-01-13T13:59:42Z</time>
  <cmt>extensions = 1.11</cmt>
    </trkpt>
    <trkpt lat="27.855641" lon="-15.62661">
    <time>1971-01-13T13:59:53Z</time>
  <cmt>extensions = 0.65</cmt>
    </trkpt>
    <trkpt lat="27.85557" lon="-15.626542">
    <time>1971-01-13T14:00:02Z</time>
  <cmt>extensions = 0.86</cmt>
    </trkpt>
    <trkpt lat="27.855477" lon="-15.626393">
    <time>1971-01-13T14:00:18Z</time>
  <cmt>extensions = 1.02</cmt>
    </trkpt>
    <trkpt lat="27.855421" lon="-15.626349">
    <time>1971-01-13T14:00:25Z</time>
  <cmt>extensions = 0.47</cmt>
    </trkpt>
    <trkpt lat="27.85535" lon="-15.626409">
    <time>1971-01-13T14:00:34Z</time>
  <cmt>extensions = 0.70</cmt>
    </trkpt>
    <trkpt lat="27.855273" lon="-15.62636">
    <time>1971-01-13T14:00:43Z</time>
  <cmt>extensions = 0.73</cmt>
    </trkpt>
    <trkpt lat="27.855091" lon="-15.626361">
    <time>1971-01-13T14:01:01Z</time>
  <cmt>extensions = 1.34</cmt>
    </trkpt>
    <trkpt lat="27.855047" lon="-15.626439">
    <time>1971-01-13T14:01:09Z</time>
  <cmt>extensions = 0.70</cmt>
    </trkpt>
    <trkpt lat="27.855072" lon="-15.626347">
    <time>1971-01-13T14:01:18Z</time>
  <cmt>extensions = 0.58</cmt>
    </trkpt>
    <trkpt lat="27.854832" lon="-15.626443">
    <time>1971-01-13T14:01:43Z</time>
  <cmt>extensions = 0.94</cmt>
    </trkpt>
    <trkpt lat="27.854754" lon="-15.626405">
    <time>1971-01-13T14:01:52Z</time>
  <cmt>extensions = 0.73</cmt>
    </trkpt>
    <trkpt lat="27.85461" lon="-15.626446">
    <time>1971-01-13T14:02:06Z</time>
  <cmt>extensions = 0.91</cmt>
    </trkpt>
    <trkpt lat="27.854601" lon="-15.626355">
    <time>1971-01-13T14:02:14Z</time>
  <cmt>extensions = 0.75</cmt>
    </trkpt>
    <trkpt lat="27.854569" lon="-15.626287">
    <time>1971-01-13T14:02:21Z</time>
  <cmt>extensions = 0.54</cmt>
    </trkpt>
    <trkpt lat="27.854526" lon="-15.626222">
    <time>1971-01-13T14:02:28Z</time>
  <cmt>extensions = 0.84</cmt>
    </trkpt>
    <trkpt lat="27.854465" lon="-15.626207">
    <time>1971-01-13T14:02:35Z</time>
  <cmt>extensions = 1.16</cmt>
    </trkpt>
    <trkpt lat="27.854398" lon="-15.626136">
    <time>1971-01-13T14:02:44Z</time>
  <cmt>extensions = 0.51</cmt>
    </trkpt>
    <trkpt lat="27.854346" lon="-15.626022">
    <time>1971-01-13T14:02:55Z</time>
  <cmt>extensions = 0.51</cmt>
    </trkpt>
    <trkpt lat="27.85422" lon="-15.626042">
    <time>1971-01-13T14:03:08Z</time>
  <cmt>extensions = 0.70</cmt>
    </trkpt>
    <trkpt lat="27.85415" lon="-15.626039">
    <time>1971-01-13T14:03:15Z</time>
  <cmt>extensions = 1.11</cmt>
    </trkpt>
    <trkpt lat="27.854078" lon="-15.625958">
    <time>1971-01-13T14:03:25Z</time>
  <cmt>extensions = 0.12</cmt>
    </trkpt>
    <trkpt lat="27.853967" lon="-15.625724">
    <time>1971-01-13T14:03:48Z</time>
  <cmt>extensions = 1.64</cmt>
    </trkpt>
    <trkpt lat="27.853922" lon="-15.625656">
    <time>1971-01-13T14:03:56Z</time>
  <cmt>extensions = 0.93</cmt>
    </trkpt>
    <trkpt lat="27.853817" lon="-15.625734">
    <time>1971-01-13T14:04:09Z</time>
  <cmt>extensions = 1.00</cmt>
    </trkpt>
    <trkpt lat="27.853752" lon="-15.625679">
    <time>1971-01-13T14:04:17Z</time>
  <cmt>extensions = 0.60</cmt>
    </trkpt>
    <trkpt lat="27.853428" lon="-15.625768">
    <time>1971-01-13T14:04:50Z</time>
  <cmt>extensions = 1.01</cmt>
    </trkpt>
    <trkpt lat="27.853217" lon="-15.625894">
    <time>1971-01-13T14:05:14Z</time>
  <cmt>extensions = 0.49</cmt>
    </trkpt>
    <trkpt lat="27.852958" lon="-15.62591">
    <time>1971-01-13T14:05:40Z</time>
  <cmt>extensions = 2.41</cmt>
    </trkpt>
    <trkpt lat="27.852732" lon="-15.625854">
    <time>1971-01-13T14:06:03Z</time>
  <cmt>extensions = 0.59</cmt>
    </trkpt>
    <trkpt lat="27.85249" lon="-15.625725">
    <time>1971-01-13T14:06:29Z</time>
  <cmt>extensions = 1.57</cmt>
    </trkpt>
    <trkpt lat="27.852232" lon="-15.625469">
    <time>1971-01-13T14:07:04Z</time>
  <cmt>extensions = 2.94</cmt>
    </trkpt>
    <trkpt lat="27.852345" lon="-15.625597">
    <time>1971-01-13T14:07:20Z</time>
  <cmt>extensions = 1.19</cmt>
    </trkpt>
    <trkpt lat="27.852297" lon="-15.625505">
    <time>1971-01-13T14:07:29Z</time>
  <cmt>extensions = 0.46</cmt>
    </trkpt>
    <trkpt lat="27.85212" lon="-15.625286">
    <time>1971-01-13T14:07:55Z</time>
  <cmt>extensions = 1.39</cmt>
    </trkpt>
    <trkpt lat="27.852126" lon="-15.625143">
    <time>1971-01-13T14:08:08Z</time>
    </trkpt>
    <trkpt lat="27.851998" lon="-15.624917">
    <time>1971-01-13T14:08:32Z</time>
  <cmt>extensions = 1.58</cmt>
    </trkpt>
    <trkpt lat="27.851977" lon="-15.624839">
    <time>1971-01-13T14:08:39Z</time>
  <cmt>extensions = 1.00</cmt>
    </trkpt>
    <trkpt lat="27.851894" lon="-15.624817">
    <time>1971-01-13T14:08:47Z</time>
  <cmt>extensions = 0.79</cmt>
    </trkpt>
    <trkpt lat="27.85185" lon="-15.62473">
    <time>1971-01-13T14:08:56Z</time>
  <cmt>extensions = 1.45</cmt>
    </trkpt>
    <trkpt lat="27.851493" lon="-15.624436">
    <time>1971-01-13T14:09:40Z</time>
  <cmt>extensions = 1.52</cmt>
    </trkpt>
    <trkpt lat="27.851242" lon="-15.624099">
    <time>1971-01-13T14:10:19Z</time>
  <cmt>extensions = 2.54</cmt>
    </trkpt>
    <trkpt lat="27.851157" lon="-15.624019">
    <time>1971-01-13T14:10:30Z</time>
  <cmt>extensions = 2.05</cmt>
    </trkpt>
    <trkpt lat="27.851007" lon="-15.623807">
    <time>1971-01-13T14:10:54Z</time>
  <cmt>extensions = 1.93</cmt>
    </trkpt>
    <trkpt lat="27.850581" lon="-15.623335">
    <time>1971-01-13T14:11:54Z</time>
  <cmt>extensions = 1.27</cmt>
    </trkpt>
    <trkpt lat="27.850511" lon="-15.623295">
    <time>1971-01-13T14:12:02Z</time>
  <cmt>extensions = 2.18</cmt>
    </trkpt>
    <trkpt lat="27.850386" lon="-15.623159">
    <time>1971-01-13T14:12:19Z</time>
  <cmt>extensions = 1.61</cmt>
    </trkpt>
    <trkpt lat="27.850316" lon="-15.623022">
    <time>1971-01-13T14:12:33Z</time>
  <cmt>extensions = 0.78</cmt>
    </trkpt>
    <trkpt lat="27.850242" lon="-15.622923">
    <time>1971-01-13T14:12:45Z</time>
  <cmt>extensions = 0.75</cmt>
    </trkpt>
    <trkpt lat="27.850174" lon="-15.622878">
    <time>1971-01-13T14:12:52Z</time>
  <cmt>extensions = 0.97</cmt>
    </trkpt>
    <trkpt lat="27.850057" lon="-15.622807">
    <time>1971-01-13T14:13:06Z</time>
  <cmt>extensions = 1.02</cmt>
    </trkpt>
    <trkpt lat="27.84999" lon="-15.622756">
    <time>1971-01-13T14:13:14Z</time>
  <cmt>extensions = 1.07</cmt>
    </trkpt>
    <trkpt lat="27.849986" lon="-15.622592">
    <time>1971-01-13T14:13:28Z</time>
  <cmt>extensions = 0.87</cmt>
    </trkpt>
    <trkpt lat="27.849858" lon="-15.622552">
    <time>1971-01-13T14:13:42Z</time>
  <cmt>extensions = 1.14</cmt>
    </trkpt>
    <trkpt lat="27.849831" lon="-15.62245">
    <time>1971-01-13T14:13:51Z</time>
  <cmt>extensions = 1.16</cmt>
    </trkpt>
    <trkpt lat="27.849818" lon="-15.622251">
    <time>1971-01-13T14:14:09Z</time>
  <cmt>extensions = 1.40</cmt>
    </trkpt>
    <trkpt lat="27.849789" lon="-15.622093">
    <time>1971-01-13T14:14:23Z</time>
  <cmt>extensions = 1.32</cmt>
    </trkpt>
    <trkpt lat="27.849784" lon="-15.621826">
    <time>1971-01-13T14:14:47Z</time>
  <cmt>extensions = 1.55</cmt>
    </trkpt>
    <trkpt lat="27.849731" lon="-15.621626">
    <time>1971-01-13T14:15:05Z</time>
  <cmt>extensions = 2.52</cmt>
    </trkpt>
    <trkpt lat="27.849735" lon="-15.621437">
    <time>1971-01-13T14:15:22Z</time>
  <cmt>extensions = 1.33</cmt>
    </trkpt>
    <trkpt lat="27.849761" lon="-15.621252">
    <time>1971-01-13T14:15:38Z</time>
  <cmt>extensions = 1.42</cmt>
    </trkpt>
    <trkpt lat="27.849751" lon="-15.621095">
    <time>1971-01-13T14:15:52Z</time>
  <cmt>extensions = 1.41</cmt>
    </trkpt>
    <trkpt lat="27.849812" lon="-15.620637">
    <time>1971-01-13T14:16:33Z</time>
  <cmt>extensions = 1.32</cmt>
    </trkpt>
    <trkpt lat="27.849757" lon="-15.620226">
    <time>1971-01-13T14:17:10Z</time>
  <cmt>extensions = 1.02</cmt>
    </trkpt>
    <trkpt lat="27.849788" lon="-15.620148">
    <time>1971-01-13T14:17:18Z</time>
  <cmt>extensions = 0.53</cmt>
    </trkpt>
    <trkpt lat="27.84974" lon="-15.620081">
    <time>1971-01-13T14:17:25Z</time>
  <cmt>extensions = 0.61</cmt>
    </trkpt>
    <trkpt lat="27.849894" lon="-15.62008">
    <time>1971-01-13T14:17:41Z</time>
  <cmt>extensions = 1.98</cmt>
    </trkpt>
    <trkpt lat="27.850108" lon="-15.620053">
    <time>1971-01-13T14:18:02Z</time>
  <cmt>extensions = 1.53</cmt>
    </trkpt>
    <trkpt lat="27.850228" lon="-15.620038">
    <time>1971-01-13T14:18:14Z</time>
  <cmt>extensions = 0.59</cmt>
    </trkpt>
    <trkpt lat="27.850167" lon="-15.619984">
    <time>1971-01-13T14:18:22Z</time>
  <cmt>extensions = 1.44</cmt>
    </trkpt>
    <trkpt lat="27.850226" lon="-15.619947">
    <time>1971-01-13T14:18:29Z</time>
  <cmt>extensions = 0.94</cmt>
    </trkpt>
    <trkpt lat="27.850325" lon="-15.619965">
    <time>1971-01-13T14:18:39Z</time>
  <cmt>extensions = 1.39</cmt>
    </trkpt>
    <trkpt lat="27.850254" lon="-15.619886">
    <time>1971-01-13T14:18:49Z</time>
  <cmt>extensions = 1.38</cmt>
    </trkpt>
    <trkpt lat="27.850304" lon="-15.619818">
    <time>1971-01-13T14:18:56Z</time>
  <cmt>extensions = 1.78</cmt>
    </trkpt>
    <trkpt lat="27.850439" lon="-15.619705">
    <time>1971-01-13T14:19:13Z</time>
  <cmt>extensions = 1.20</cmt>
    </trkpt>
    <trkpt lat="27.850516" lon="-15.619707">
    <time>1971-01-13T14:19:21Z</time>
  <cmt>extensions = 1.07</cmt>
    </trkpt>
    <trkpt lat="27.850588" lon="-15.619772">
    <time>1971-01-13T14:19:30Z</time>
  <cmt>extensions = 0.93</cmt>
    </trkpt>
    <trkpt lat="27.850616" lon="-15.619623">
    <time>1971-01-13T14:19:43Z</time>
  <cmt>extensions = 1.01</cmt>
    </trkpt>
    <trkpt lat="27.850608" lon="-15.619539">
    <time>1971-01-13T14:19:51Z</time>
  <cmt>extensions = 1.04</cmt>
    </trkpt>
    <trkpt lat="27.850612" lon="-15.619444">
    <time>1971-01-13T14:19:59Z</time>
  <cmt>extensions = 1.17</cmt>
    </trkpt>
    <trkpt lat="27.850721" lon="-15.619427">
    <time>1971-01-13T14:20:10Z</time>
  <cmt>extensions = 1.36</cmt>
    </trkpt>
    <trkpt lat="27.850935" lon="-15.619482">
    <time>1971-01-13T14:20:32Z</time>
  <cmt>extensions = 1.04</cmt>
    </trkpt>
    <trkpt lat="27.85098" lon="-15.619425">
    <time>1971-01-13T14:20:39Z</time>
  <cmt>extensions = 0.80</cmt>
    </trkpt>
    <trkpt lat="27.851069" lon="-15.619424">
    <time>1971-01-13T14:20:48Z</time>
  <cmt>extensions = 0.53</cmt>
    </trkpt>
    <trkpt lat="27.851122" lon="-15.619353">
    <time>1971-01-13T14:20:56Z</time>
  <cmt>extensions = 0.76</cmt>
    </trkpt>
    <trkpt lat="27.851059" lon="-15.619306">
    <time>1971-01-13T14:21:04Z</time>
  <cmt>extensions = 0.37</cmt>
    </trkpt>
    <trkpt lat="27.850993" lon="-15.619077">
    <time>1971-01-13T14:21:25Z</time>
  <cmt>extensions = 0.94</cmt>
    </trkpt>
    <trkpt lat="27.850902" lon="-15.618987">
    <time>1971-01-13T14:21:37Z</time>
  <cmt>extensions = 1.12</cmt>
    </trkpt>
    <trkpt lat="27.850809" lon="-15.618949">
    <time>1971-01-13T14:21:47Z</time>
  <cmt>extensions = 0.79</cmt>
    </trkpt>
    <trkpt lat="27.850665" lon="-15.618913">
    <time>1971-01-13T14:22:02Z</time>
  <cmt>extensions = 1.03</cmt>
    </trkpt>
    <trkpt lat="27.850608" lon="-15.618872">
    <time>1971-01-13T14:22:08Z</time>
  <cmt>extensions = 0.75</cmt>
    </trkpt>
    <trkpt lat="27.850555" lon="-15.618794">
    <time>1971-01-13T14:22:17Z</time>
  <cmt>extensions = 0.56</cmt>
    </trkpt>
    <trkpt lat="27.850483" lon="-15.618748">
    <time>1971-01-13T14:22:25Z</time>
  <cmt>extensions = 0.54</cmt>
    </trkpt>
    <trkpt lat="27.85039" lon="-15.61863">
    <time>1971-01-13T14:22:39Z</time>
  <cmt>extensions = 1.20</cmt>
    </trkpt>
    <trkpt lat="27.850302" lon="-15.618611">
    <time>1971-01-13T14:22:48Z</time>
  <cmt>extensions = 0.59</cmt>
    </trkpt>
    <trkpt lat="27.850231" lon="-15.618563">
    <time>1971-01-13T14:22:56Z</time>
  <cmt>extensions = 0.51</cmt>
    </trkpt>
    <trkpt lat="27.850091" lon="-15.618398">
    <time>1971-01-13T14:23:17Z</time>
  <cmt>extensions = 0.68</cmt>
    </trkpt>
    <trkpt lat="27.850031" lon="-15.618307">
    <time>1971-01-13T14:23:27Z</time>
  <cmt>extensions = 0.70</cmt>
    </trkpt>
    <trkpt lat="27.849892" lon="-15.618148">
    <time>1971-01-13T14:23:46Z</time>
  <cmt>extensions = 1.06</cmt>
    </trkpt>
    <trkpt lat="27.849845" lon="-15.618006">
    <time>1971-01-13T14:24:00Z</time>
  <cmt>extensions = 0.99</cmt>
    </trkpt>
    <trkpt lat="27.849776" lon="-15.617933">
    <time>1971-01-13T14:24:09Z</time>
  <cmt>extensions = 1.05</cmt>
    </trkpt>
    <trkpt lat="27.849756" lon="-15.617766">
    <time>1971-01-13T14:24:24Z</time>
  <cmt>extensions = 0.63</cmt>
    </trkpt>
    <trkpt lat="27.849681" lon="-15.61764">
    <time>1971-01-13T14:24:38Z</time>
  <cmt>extensions = 0.52</cmt>
    </trkpt>
    <trkpt lat="27.849658" lon="-15.61756">
    <time>1971-01-13T14:24:45Z</time>
  <cmt>extensions = 2.07</cmt>
    </trkpt>
    <trkpt lat="27.849614" lon="-15.617494">
    <time>1971-01-13T14:24:52Z</time>
  <cmt>extensions = 1.54</cmt>
    </trkpt>
    <trkpt lat="27.849521" lon="-15.617429">
    <time>1971-01-13T14:25:03Z</time>
  <cmt>extensions = 1.22</cmt>
    </trkpt>
    <trkpt lat="27.849496" lon="-15.617324">
    <time>1971-01-13T14:25:13Z</time>
  <cmt>extensions = 0.67</cmt>
    </trkpt>
    <trkpt lat="27.849403" lon="-15.617265">
    <time>1971-01-13T14:25:23Z</time>
  <cmt>extensions = 1.51</cmt>
    </trkpt>
    <trkpt lat="27.849312" lon="-15.617159">
    <time>1971-01-13T14:25:36Z</time>
  <cmt>extensions = 1.62</cmt>
    </trkpt>
    <trkpt lat="27.849196" lon="-15.616972">
    <time>1971-01-13T14:25:57Z</time>
  <cmt>extensions = 1.37</cmt>
    </trkpt>
    <trkpt lat="27.849087" lon="-15.61688">
    <time>1971-01-13T14:26:10Z</time>
  <cmt>extensions = 1.03</cmt>
    </trkpt>
    <trkpt lat="27.849" lon="-15.616751">
    <time>1971-01-13T14:26:25Z</time>
  <cmt>extensions = 0.97</cmt>
    </trkpt>
    <trkpt lat="27.84881" lon="-15.616282">
    <time>1971-01-13T14:27:10Z</time>
  <cmt>extensions = 1.65</cmt>
    </trkpt>
    <trkpt lat="27.848689" lon="-15.61614">
    <time>1971-01-13T14:27:28Z</time>
  <cmt>extensions = 0.09</cmt>
    </trkpt>
    <trkpt lat="27.848532" lon="-15.615818">
    <time>1971-01-13T14:28:00Z</time>
  <cmt>extensions = 2.53</cmt>
    </trkpt>
    <trkpt lat="27.848202" lon="-15.61555">
    <time>1971-01-13T14:28:41Z</time>
  <cmt>extensions = 3.23</cmt>
    </trkpt>
    <trkpt lat="27.848065" lon="-15.615363">
    <time>1971-01-13T14:29:02Z</time>
  <cmt>extensions = 2.39</cmt>
    </trkpt>
    <trkpt lat="27.84783" lon="-15.615213">
    <time>1971-01-13T14:29:29Z</time>
  <cmt>extensions = 2.73</cmt>
    </trkpt>
    <trkpt lat="27.847426" lon="-15.615117">
    <time>1971-01-13T14:30:10Z</time>
  <cmt>extensions = 3.83</cmt>
    </trkpt>
    <trkpt lat="27.846984" lon="-15.614934">
    <time>1971-01-13T14:30:57Z</time>
  <cmt>extensions = 4.37</cmt>
    </trkpt>
    <trkpt lat="27.846614" lon="-15.614721">
    <time>1971-01-13T14:31:39Z</time>
  <cmt>extensions = 5.19</cmt>
    </trkpt>
    <trkpt lat="27.846318" lon="-15.614466">
    <time>1971-01-13T14:32:16Z</time>
  <cmt>extensions = 5.18</cmt>
    </trkpt>
    <trkpt lat="27.846141" lon="-15.614368">
    <time>1971-01-13T14:32:36Z</time>
  <cmt>extensions = 5.48</cmt>
    </trkpt>
    <trkpt lat="27.845849" lon="-15.614363">
    <time>1971-01-13T14:33:05Z</time>
  <cmt>extensions = 4.64</cmt>
    </trkpt>
    <trkpt lat="27.845615" lon="-15.614479">
    <time>1971-01-13T14:33:30Z</time>
  <cmt>extensions = 4.06</cmt>
    </trkpt>
    <trkpt lat="27.845676" lon="-15.614767">
    <time>1971-01-13T14:33:56Z</time>
  <cmt>extensions = 4.86</cmt>
    </trkpt>
    <trkpt lat="27.845807" lon="-15.614949">
    <time>1971-01-13T14:34:17Z</time>
  <cmt>extensions = 3.85</cmt>
    </trkpt>
    <trkpt lat="27.845665" lon="-15.615042">
    <time>1971-01-13T14:34:34Z</time>
  <cmt>extensions = 3.04</cmt>
    </trkpt>
    <trkpt lat="27.84544" lon="-15.615004">
    <time>1971-01-13T14:34:56Z</time>
  <cmt>extensions = 5.46</cmt>
    </trkpt>
    <trkpt lat="27.845278" lon="-15.614922">
    <time>1971-01-13T14:35:14Z</time>
  <cmt>extensions = 4.94</cmt>
    </trkpt>
    <trkpt lat="27.845069" lon="-15.614792">
    <time>1971-01-13T14:35:38Z</time>
  <cmt>extensions = 4.49</cmt>
    </trkpt>
    <trkpt lat="27.84493" lon="-15.614735">
    <time>1971-01-13T14:35:53Z</time>
  <cmt>extensions = 5.49</cmt>
    </trkpt>
    <trkpt lat="27.844551" lon="-15.614631">
    <time>1971-01-13T14:36:31Z</time>
  <cmt>extensions = 3.95</cmt>
    </trkpt>
    <trkpt lat="27.841906" lon="-15.614632">
    <time>1971-01-13T14:40:55Z</time>
  <cmt>extensions = 6.82</cmt>
    </trkpt>
    <trkpt lat="27.841349" lon="-15.614529">
    <time>1971-01-13T14:41:52Z</time>
  <cmt>extensions = 5.18</cmt>
    </trkpt>
    <trkpt lat="27.841282" lon="-15.614493">
    <time>1971-01-13T14:41:59Z</time>
  <cmt>extensions = 4.13</cmt>
    </trkpt>
    <trkpt lat="27.840208" lon="-15.614377">
    <time>1971-01-13T14:43:47Z</time>
  <cmt>extensions = 4.72</cmt>
    </trkpt>
    <trkpt lat="27.838469" lon="-15.614537">
    <time>1971-01-13T14:46:41Z</time>
  <cmt>extensions = 32.37</cmt>
    </trkpt>
    <trkpt lat="27.838366" lon="-15.614121">
    <time>1971-01-13T14:47:19Z</time>
    </trkpt>
    <trkpt lat="27.838222" lon="-15.613775">
    <time>1971-01-13T14:47:53Z</time>
    </trkpt>
    <trkpt lat="27.837755" lon="-15.613298">
    <time>1971-01-13T14:48:56Z</time>
  <cmt>extensions = 0.45</cmt>
    </trkpt>
    <trkpt lat="27.837998" lon="-15.613336">
    <time>1971-01-13T14:49:20Z</time>
    </trkpt>
    <trkpt lat="27.837336" lon="-15.613077">
    <time>1971-01-13T14:50:30Z</time>
  <cmt>extensions = 7.00</cmt>
    </trkpt>
    <trkpt lat="27.837094" lon="-15.612857">
    <time>1971-01-13T14:51:01Z</time>
  <cmt>extensions = 2.88</cmt>
    </trkpt>
    <trkpt lat="27.836771" lon="-15.612746">
    <time>1971-01-13T14:51:35Z</time>
  <cmt>extensions = 1.57</cmt>
    </trkpt>
  </trkseg>
</trk>
</gpx>
